Central Oregon RPC :: CEDARVILLE, A3

liberation: 2020-09-26  07:30     latitude: 41.558500     longitude: -120.395100 54 birds
# LOFT PRING MILES ARRIVAL SPEED ToWin
1 RUETER FAMILY LOFT AU20-CORP-4574 223.008 2020-09-26 12:16:01.820 1372.210 00:00:00
2 RUETER FAMILY LOFT AU20-CORP-4572 223.008 2020-09-26 12:16:25.696 1370.304 00:00:24
3 RUETER FAMILY LOFT AU20-CORP-4526 223.008 2020-09-26 12:16:30.157 1369.948 00:00:28
4 RUETER FAMILY LOFT AU20-CORP-4580 223.008 2020-09-26 12:16:30.255 1369.940 00:00:28
5 RUETER FAMILY LOFT AU20-CORP-4583 223.008 2020-09-26 12:16:32.015 1369.800 00:00:30
6 RUETER FAMILY LOFT AU20-CORP-4661 223.008 2020-09-26 12:16:34.868 1369.573 00:00:33
7 RUETER FAMILY LOFT AU20-CORP-4587 223.008 2020-09-26 12:16:39.188 1369.229 00:00:37
8 RUETER FAMILY LOFT AU20-CORP-4527 223.008 2020-09-26 12:21:19.094 1347.302 00:05:17
9 RUETER FAMILY LOFT AU20-CORP-4566 223.008 2020-09-26 12:21:45.285 1345.287 00:05:43
10 ROCKY TOP AU20-ARPU-28128 188.649 2020-09-26 11:39:30.683 1330.692 00:07:33
11 RUETER FAMILY LOFT AU20-CORP-4579 223.008 2020-09-26 12:28:13.895 1316.070 00:12:12
12 RUETER FAMILY LOFT AU20-CORP-4518 223.008 2020-09-26 12:28:17.369 1315.815 00:12:16
13 HENDRICKSON FAMILY LOFT AU20-CORP-5292 193.205 2020-09-26 11:58:14.954 1267.632 00:20:27
14 HENDRICKSON FAMILY LOFT AU20-CORP-5280 193.205 2020-09-26 11:58:15.871 1267.560 00:20:28
15 AMERICAN LOFT AU20-CORP-5400 193.125 2020-09-26 11:59:09.133 1262.851 00:21:27
16 STEELE LOFT AU20-ARPU-37453 195.588 2020-09-26 12:10:27.237 1227.422 00:29:36
17 ROCKY TOP AU20-CORP-4442 188.649 2020-09-26 12:01:01.272 1225.080 00:29:04
18 ROCKY TOP AU20-PNW-2501 188.649 2020-09-26 12:07:31.243 1196.389 00:35:34
19 JACKSONS LOFT AU20-CORP-5525 163.499 2020-09-26 11:31:44.598 1190.346 00:32:02
20 JACKSONS LOFT AU20-CORP-5472 163.499 2020-09-26 11:31:55.226 1189.474 00:32:13
21 ROCKY TOP AU20-GSC-1299 188.649 2020-09-26 12:10:20.283 1184.366 00:38:23
22 TOPIGEONUSA AU20-CORP-5027 195.356 2020-09-26 12:21:18.500 1180.284 00:40:45
23 AMERICAN LOFT AU20-CORP-5417 193.125 2020-09-26 12:33:29.826 1119.942 00:55:48
24 HENDRICKSON FAMILY LOFT AU20-CORP-5266 193.205 2020-09-26 12:34:54.674 1115.214 00:57:06
25 STEELE LOFT AU20-ARPU-37461 195.588 2020-09-26 12:52:30.539 1067.366 01:11:39
26 STEELE LOFT AU20-BORD-20058 195.588 2020-09-26 12:52:38.184 1066.945 01:11:46
27 TOPIGEONUSA AU20-CORP-4897 195.356 2020-09-26 13:03:17.766 1031.594 01:22:44
28 AMERICAN LOFT AU20-CORP-5554 193.125 2020-09-26 13:09:48.187 1000.283 01:32:06
29 ROCKY TOP AU20-CORP-4445 188.649 2020-09-26 13:04:33.349 992.429 01:32:36
30 JACKSONS LOFT AU20-CORP-5523 163.499 2020-09-26 12:21:36.933 986.772 01:21:55
31 JACKSONS LOFT AU20-CORP-4650 163.499 2020-09-26 12:26:48.911 969.486 01:27:07
32 RUETER FAMILY LOFT AU20-CORP-4551 223.008 2020-09-26 14:23:27.486 949.295 02:07:26
33 TOPIGEONUSA AU20-CORP-4881 195.356 2020-09-26 13:36:42.699 937.593 01:56:09
34 JACKSONS LOFT AU20-CORP-5524 163.499 2020-09-26 13:16:15.124 831.066 02:16:33
35 JACKSONS LOFT AU20-CORP-4665 163.499 2020-09-26 13:18:06.485 826.635 02:18:24
36 TOPIGEONUSA AU20-CORP-4868 195.356 2020-09-26 15:00:23.739 763.388 03:19:50
37 AMERICAN LOFT AU20-CORP-5479 193.125 2020-09-26 15:08:50.900 740.766 03:31:09
38 ROCKY TOP AU20-CORP-4404 188.649 2020-09-26 15:04:49.167 730.010 03:32:51
39 HENDRICKSON FAMILY LOFT AU20-CORP-5285 193.205 2020-09-26 15:47:05.038 684.072 04:09:17
40 RUETER FAMILY LOFT AU20-CORP-4612 223.008 2020-09-26 17:16:27.156 669.268 05:00:25
41 STEELE LOFT AU20-ARPU-37458 195.588 2020-09-26 16:36:24.514 629.996 04:55:33
42 TIM GRAVES AU20-CORP-4720 187.408 2020-09-27 16:03:26.949 255.754 17:29:18
AMERICAN LOFT AU20-CORP-5517 0 0000-00-00 00:00:00.000 0.000 00:00:00
AMERICAN LOFT AU20-CORP-5560 0 0000-00-00 00:00:00.000 0.000 00:00:00
JACKSONS LOFT AU20-CORP-4644 0 0000-00-00 00:00:00.000 0.000 00:00:00
JACKSONS LOFT AU20-CORP-5201 0 0000-00-00 00:00:00.000 0.000 00:00:00
ROCKY TOP AU20-TAC-2774 0 0000-00-00 00:00:00.000 0.000 00:00:00
RUETER FAMILY LOFT AU20-CORP-4603 0 0000-00-00 00:00:00.000 0.000 00:00:00
STEELE LOFT AU20-BORD-20064 0 0000-00-00 00:00:00.000 0.000 00:00:00
STEELE LOFT AU20-CORP-5015 0 0000-00-00 00:00:00.000 0.000 00:00:00
STEELE LOFT AU20-CORP-5089 0 0000-00-00 00:00:00.000 0.000 00:00:00
STEELE LOFT IF20-EART-0053 0 0000-00-00 00:00:00.000 0.000 00:00:00
STEELE LOFT IF20-EART-0055 0 0000-00-00 00:00:00.000 0.000 00:00:00
TOPIGEONUSA AU20-CORP-4858 0 0000-00-00 00:00:00.000 0.000 00:00:00